Hamilton, North Dakota
Current Conditions -  °F | °C
As of 2:15 PM on Wednesday 26 Nov 2014 (Local Time) from K2C8 Reporting Station
Scattered Clouds Scattered Clouds  
Wind Chill: -18°   Ceiling: Unl
Heat Index:   Visibility: 7mi
Dew Point: -8°   Wind: 13mph
Humidity: 72%   Direction: 350°N
Pressure: 30.48"   Gusts: NA
Location:  48.81°N, 97.45°W
Report Text: K2C8 262015Z AUTO 35011KT 7SM FEW009 FEW015 SCT020 M18/M22 A3048 RMK AO2
Loading
Personal Weather Stations






























Interactive Weather Map New forecast layout! Learn more

10-Day Weather Forecast

Advertisements
Track Severe Weather on mobile